Time;durP1;ratioP1;P1;durP2;ratioP2;P2;SDS_P1;SDS_P2;PMS_P1;PMS_P2;Temp;Humidity;BMP_temperature;BMP_pressure;BME280_temperature;BME280_humidity;BME280_pressure;Samples;Min_cycle;Max_cycle;Signal;HPM_P1;HPM_P2
2021/05/29 00:00:43;;;;;;;1.43;1.33;;;;;;;;;;5022944;28;20210;-75
2021/05/29 00:03:08;;;;;;;1.57;1.30;;;;;;;;;;5031699;28;20435;-75
2021/05/29 00:05:35;;;;;;;1.53;1.20;;;;;;;;;;5026810;28;20765;-75
2021/05/29 00:08:01;;;;;;;0.90;0.70;;;;;;;;;;5030528;28;20864;-75
2021/05/29 00:10:26;;;;;;;1.23;1.13;;;;;;;;;;5034342;28;20301;-75
2021/05/29 00:12:52;;;;;;;2.10;1.37;;;;;;;;;;5031507;28;20436;-75
2021/05/29 00:15:19;;;;;;;1.17;1.07;;;;;;;;;;5026127;28;20478;-75
2021/05/29 00:17:45;;;;;;;1.00;0.90;;;;;;;;;;5033482;28;20436;-75
2021/05/29 00:20:11;;;;;;;1.30;1.10;;;;;;;;;;5026083;28;20570;-75
2021/05/29 00:22:37;;;;;;;1.30;1.15;;;;;;;;;;5032485;28;20486;-74
2021/05/29 00:25:03;;;;;;;1.10;1.00;;;;;;;;;;5031924;28;20189;-74
2021/05/29 00:27:29;;;;;;;1.60;1.45;;;;;;;;;;5035961;28;20527;-75
2021/05/29 00:29:55;;;;;;;1.70;1.20;;;;;;;;;;5031583;28;20255;-74
2021/05/29 00:32:21;;;;;;;0.90;0.70;;;;;;;;;;5021904;28;20182;-75
2021/05/29 00:34:47;;;;;;;1.50;1.40;;;;;;;;;;5033997;28;20515;-75
2021/05/29 00:37:13;;;;;;;1.00;0.80;;;;;;;;;;5033328;28;20516;-75
2021/05/29 00:39:39;;;;;;;1.80;1.70;;;;;;;;;;5037989;28;20524;-75
2021/05/29 00:42:05;;;;;;;1.10;1.00;;;;;;;;;;5033860;28;20447;-75
2021/05/29 00:44:49;;;;;;;1.23;1.13;;;;;;;;;;5025733;28;20433;-75
2021/05/29 00:47:19;;;;;;;0.90;0.70;;;;;;;;;;5031916;28;20269;-75
2021/05/29 00:49:45;;;;;;;1.55;1.25;;;;;;;;;;5027202;28;20217;-75
2021/05/29 00:52:13;;;;;;;1.13;1.03;;;;;;;;;;5026383;28;20183;-75
2021/05/29 00:54:39;;;;;;;1.27;0.90;;;;;;;;;;5024569;28;20424;-75
2021/05/29 00:57:05;;;;;;;1.00;0.80;;;;;;;;;;5025052;28;20804;-74
2021/05/29 00:59:32;;;;;;;1.02;0.93;;;;;;;;;;5028522;28;20957;-74
2021/05/29 01:01:58;;;;;;;1.20;0.80;;;;;;;;;;5042215;28;20265;-75
2021/05/29 01:04:24;;;;;;;1.20;1.10;;;;;;;;;;5030372;28;20272;-74
2021/05/29 01:06:50;;;;;;;1.00;0.80;;;;;;;;;;5037488;28;20500;-74
2021/05/29 01:09:16;;;;;;;2.07;1.47;;;;;;;;;;5027673;28;20471;-74
2021/05/29 01:11:42;;;;;;;1.30;1.13;;;;;;;;;;5032126;28;20455;-74
2021/05/29 01:14:08;;;;;;;3.53;1.00;;;;;;;;;;5032239;28;20432;-75
2021/05/29 01:19:02;;;;;;;1.30;1.20;;;;;;;;;;5024014;28;20195;-74
2021/05/29 01:21:28;;;;;;;0.98;0.70;;;;;;;;;;5028517;28;20203;-74
2021/05/29 01:23:54;;;;;;;1.10;1.00;;;;;;;;;;5023433;28;20553;-74
2021/05/29 01:26:20;;;;;;;1.00;0.80;;;;;;;;;;5025416;28;20447;-74
2021/05/29 01:28:53;;;;;;;2.13;1.50;;;;;;;;;;5024845;28;20429;-74
2021/05/29 01:31:19;;;;;;;2.60;1.70;;;;;;;;;;5022297;28;20259;-74
2021/05/29 01:33:45;;;;;;;1.07;0.87;;;;;;;;;;5031743;28;20863;-74
2021/05/29 01:36:11;;;;;;;1.27;1.17;;;;;;;;;;5020873;28;20440;-74
2021/05/29 01:38:38;;;;;;;1.00;0.90;;;;;;;;;;5029159;28;20228;-74
2021/05/29 01:41:12;;;;;;;1.00;0.70;;;;;;;;;;5030471;28;20263;-74
2021/05/29 01:43:48;;;;;;;2.22;1.65;;;;;;;;;;5025958;28;20828;-74
2021/05/29 01:46:15;;;;;;;1.73;1.60;;;;;;;;;;5028155;28;21625;-74
2021/05/29 01:48:44;;;;;;;1.30;1.20;;;;;;;;;;5029151;28;20185;-74
2021/05/29 01:51:10;;;;;;;1.33;1.20;;;;;;;;;;5028471;28;20773;-74
2021/05/29 01:53:38;;;;;;;1.88;1.77;;;;;;;;;;5023421;28;20253;-74
2021/05/29 01:56:05;;;;;;;1.00;0.90;;;;;;;;;;5031060;28;20186;-75
2021/05/29 01:58:31;;;;;;;1.92;1.50;;;;;;;;;;5031063;28;20181;-74
2021/05/29 02:00:57;;;;;;;1.05;0.95;;;;;;;;;;5031687;28;20210;-74
2021/05/29 02:03:23;;;;;;;1.15;1.05;;;;;;;;;;5032317;28;20258;-75
2021/05/29 02:05:49;;;;;;;1.35;1.25;;;;;;;;;;5031342;28;20220;-75
2021/05/29 02:08:16;;;;;;;1.27;1.17;;;;;;;;;;5027697;28;20280;-74
2021/05/29 02:10:43;;;;;;;1.10;1.00;;;;;;;;;;5030126;28;20544;-75
2021/05/29 02:13:11;;;;;;;2.40;2.20;;;;;;;;;;5029914;28;20605;-74
2021/05/29 02:15:38;;;;;;;1.08;0.88;;;;;;;;;;5029931;28;20187;-73
2021/05/29 02:18:05;;;;;;;2.92;1.30;;;;;;;;;;5030291;28;20261;-75
2021/05/29 02:20:31;;;;;;;1.00;0.80;;;;;;;;;;5031534;28;20734;-75
2021/05/29 02:22:57;;;;;;;1.10;0.80;;;;;;;;;;5030155;28;20267;-74
2021/05/29 02:25:23;;;;;;;1.30;1.10;;;;;;;;;;5023746;28;20439;-74
2021/05/29 02:27:49;;;;;;;1.80;1.43;;;;;;;;;;5016443;28;20488;-75
2021/05/29 02:30:15;;;;;;;1.10;1.00;;;;;;;;;;5037476;28;20850;-72
2021/05/29 02:32:41;;;;;;;1.73;1.17;;;;;;;;;;5024207;28;20434;-74
2021/05/29 02:35:07;;;;;;;1.20;1.07;;;;;;;;;;5031757;28;20228;-73
2021/05/29 02:37:33;;;;;;;1.02;0.85;;;;;;;;;;5031572;28;20459;-73
2021/05/29 02:39:59;;;;;;;2.85;1.33;;;;;;;;;;5028620;28;20218;-74
2021/05/29 02:42:25;;;;;;;1.00;0.80;;;;;;;;;;5031678;28;20232;-73
2021/05/29 02:44:51;;;;;;;1.10;0.83;;;;;;;;;;5016282;28;20431;-73
2021/05/29 02:47:17;;;;;;;1.67;1.57;;;;;;;;;;5027352;28;20996;-74
2021/05/29 02:49:43;;;;;;;1.10;0.80;;;;;;;;;;5027925;28;20479;-74
2021/05/29 02:52:09;;;;;;;1.13;1.02;;;;;;;;;;5030312;28;20463;-74
2021/05/29 02:54:41;;;;;;;1.23;1.00;;;;;;;;;;5025941;28;20214;-75
2021/05/29 02:57:07;;;;;;;1.85;1.15;;;;;;;;;;5025890;28;20441;-74
2021/05/29 02:59:33;;;;;;;3.42;1.30;;;;;;;;;;5034223;28;20202;-75
2021/05/29 03:02:00;;;;;;;2.23;1.57;;;;;;;;;;5029655;28;20188;-75
2021/05/29 03:04:25;;;;;;;1.73;1.63;;;;;;;;;;5023165;28;21145;-74
2021/05/29 03:06:51;;;;;;;2.43;2.30;;;;;;;;;;5029382;28;20197;-74
2021/05/29 03:09:17;;;;;;;1.23;1.13;;;;;;;;;;5018326;28;20535;-75
2021/05/29 03:11:43;;;;;;;2.27;1.37;;;;;;;;;;5029549;28;20456;-75
2021/05/29 03:14:09;;;;;;;1.30;1.00;;;;;;;;;;5034266;28;20429;-74
2021/05/29 03:16:35;;;;;;;1.30;1.20;;;;;;;;;;5031812;28;20400;-74
2021/05/29 03:19:01;;;;;;;1.10;0.90;;;;;;;;;;5028205;28;20651;-74
2021/05/29 03:21:27;;;;;;;1.10;1.00;;;;;;;;;;5025598;28;20449;-75
2021/05/29 03:23:53;;;;;;;1.20;1.00;;;;;;;;;;5023695;28;20465;-74
2021/05/29 03:26:19;;;;;;;1.00;0.80;;;;;;;;;;5075771;22;20508;-76
2021/05/29 03:28:45;;;;;;;1.80;1.50;;;;;;;;;;5027929;28;20500;-76
2021/05/29 03:31:11;;;;;;;1.13;1.03;;;;;;;;;;5027771;28;20428;-76
2021/05/29 03:33:37;;;;;;;1.00;0.90;;;;;;;;;;5025816;28;20428;-76
2021/05/29 03:36:03;;;;;;;1.75;1.65;;;;;;;;;;5024157;28;20547;-76
2021/05/29 03:38:29;;;;;;;1.10;1.00;;;;;;;;;;5029063;28;20189;-76
2021/05/29 03:40:55;;;;;;;1.00;0.80;;;;;;;;;;5039406;28;20232;-75
2021/05/29 03:43:21;;;;;;;1.60;1.50;;;;;;;;;;5033606;28;20515;-75
2021/05/29 03:45:47;;;;;;;1.48;1.02;;;;;;;;;;5032042;28;20507;-75
2021/05/29 03:48:13;;;;;;;1.30;1.20;;;;;;;;;;5037842;28;20668;-77
2021/05/29 03:50:39;;;;;;;1.30;1.00;;;;;;;;;;5034037;28;20409;-76
2021/05/29 03:53:08;;;;;;;2.95;2.20;;;;;;;;;;5028930;28;20507;-75
2021/05/29 03:55:35;;;;;;;1.10;0.80;;;;;;;;;;5037357;28;20189;-77
2021/05/29 03:58:01;;;;;;;2.25;1.88;;;;;;;;;;5034343;28;20215;-75
2021/05/29 04:00:28;;;;;;;1.40;1.30;;;;;;;;;;5043170;28;20265;-76
2021/05/29 04:02:54;;;;;;;3.95;1.52;;;;;;;;;;5038204;28;20468;-76
2021/05/29 04:05:20;;;;;;;1.35;1.10;;;;;;;;;;5037240;28;20178;-76
2021/05/29 04:07:46;;;;;;;1.00;0.70;;;;;;;;;;5037826;28;20202;-76
2021/05/29 04:10:33;;;;;;;1.20;1.10;;;;;;;;;;5045523;28;20686;-76
2021/05/29 04:12:59;;;;;;;1.88;1.20;;;;;;;;;;5041569;28;20273;-76
2021/05/29 04:15:26;;;;;;;4.78;1.33;;;;;;;;;;5044155;28;20178;-76
2021/05/29 04:17:52;;;;;;;1.83;1.52;;;;;;;;;;5044712;28;20181;-73
2021/05/29 04:20:19;;;;;;;1.30;1.20;;;;;;;;;;5041831;28;20206;-75
2021/05/29 04:22:45;;;;;;;1.20;0.93;;;;;;;;;;5033889;28;20178;-76
2021/05/29 04:25:13;;;;;;;1.20;1.00;;;;;;;;;;5043193;28;20185;-76
2021/05/29 04:27:39;;;;;;;1.35;0.93;;;;;;;;;;5031264;28;20212;-76
2021/05/29 04:30:07;;;;;;;1.10;0.98;;;;;;;;;;5044582;28;20556;-77
2021/05/29 04:32:33;;;;;;;1.48;1.38;;;;;;;;;;5042083;28;20222;-77
2021/05/29 04:34:59;;;;;;;2.38;2.17;;;;;;;;;;5034767;28;20189;-77
2021/05/29 04:37:25;;;;;;;1.33;1.23;;;;;;;;;;5033762;28;20211;-77
2021/05/29 04:39:51;;;;;;;1.77;1.67;;;;;;;;;;5041341;28;20485;-77
2021/05/29 04:42:17;;;;;;;2.00;1.80;;;;;;;;;;5046681;28;20181;-77
2021/05/29 04:44:43;;;;;;;1.27;1.17;;;;;;;;;;5034609;28;20182;-77
2021/05/29 04:47:09;;;;;;;1.60;1.50;;;;;;;;;;5037630;28;20468;-76
2021/05/29 04:49:35;;;;;;;1.52;1.42;;;;;;;;;;5036651;28;20463;-75
2021/05/29 04:52:01;;;;;;;1.40;1.30;;;;;;;;;;5042915;28;20190;-75
2021/05/29 04:54:27;;;;;;;1.45;1.13;;;;;;;;;;5039709;28;20235;-75
2021/05/29 04:56:53;;;;;;;1.80;1.70;;;;;;;;;;5035525;28;20683;-74
2021/05/29 04:59:20;;;;;;;1.70;1.40;;;;;;;;;;5037794;28;20197;-78
2021/05/29 05:01:46;;;;;;;1.20;1.10;;;;;;;;;;5037080;28;20197;-76
2021/05/29 05:04:12;;;;;;;1.83;1.73;;;;;;;;;;5044318;28;20182;-77
2021/05/29 05:06:38;;;;;;;1.33;1.23;;;;;;;;;;5045449;28;20449;-75
2021/05/29 05:09:04;;;;;;;1.38;1.20;;;;;;;;;;5039290;28;20465;-78
2021/05/29 05:11:30;;;;;;;1.30;1.13;;;;;;;;;;5038487;28;20174;-78
2021/05/29 05:13:56;;;;;;;1.08;0.95;;;;;;;;;;5037085;28;20211;-77
2021/05/29 05:16:22;;;;;;;1.85;1.45;;;;;;;;;;5039505;28;20252;-77
2021/05/29 05:18:48;;;;;;;2.10;1.63;;;;;;;;;;5045417;28;20177;-78
2021/05/29 05:21:15;;;;;;;2.50;1.50;;;;;;;;;;5034907;28;20663;-78
2021/05/29 05:23:41;;;;;;;1.48;1.33;;;;;;;;;;5042853;28;20587;-78
2021/05/29 05:26:07;;;;;;;3.35;1.10;;;;;;;;;;5043986;28;20587;-78
2021/05/29 05:28:33;;;;;;;1.20;1.10;;;;;;;;;;5043080;28;20185;-78
2021/05/29 05:31:00;;;;;;;3.13;1.80;;;;;;;;;;5026897;28;20188;-78
2021/05/29 05:33:26;;;;;;;1.27;1.17;;;;;;;;;;5045619;28;20197;-77
2021/05/29 05:35:53;;;;;;;1.55;1.45;;;;;;;;;;5032744;28;20228;-78
2021/05/29 05:38:20;;;;;;;1.63;1.10;;;;;;;;;;5029098;28;20189;-78
2021/05/29 05:40:46;;;;;;;1.33;1.23;;;;;;;;;;5036968;28;20269;-76
2021/05/29 05:43:12;;;;;;;2.05;1.85;;;;;;;;;;5030583;28;20217;-76
2021/05/29 05:45:38;;;;;;;1.38;1.27;;;;;;;;;;5031632;28;20265;-76
2021/05/29 05:48:05;;;;;;;2.17;1.98;;;;;;;;;;5034125;28;20184;-77
2021/05/29 05:50:31;;;;;;;2.17;1.67;;;;;;;;;;5045513;28;20182;-77
2021/05/29 05:52:57;;;;;;;1.95;1.85;;;;;;;;;;5034712;28;20197;-78
2021/05/29 05:55:23;;;;;;;1.45;1.15;;;;;;;;;;5042423;28;20177;-78
2021/05/29 05:57:49;;;;;;;1.20;1.00;;;;;;;;;;5033880;28;20941;-77
2021/05/29 06:00:17;;;;;;;1.75;1.27;;;;;;;;;;5032298;28;20206;-78
2021/05/29 06:02:45;;;;;;;2.03;1.85;;;;;;;;;;5033758;28;20174;-77
2021/05/29 06:05:11;;;;;;;2.25;2.13;;;;;;;;;;5038947;28;20178;-78
2021/05/29 06:07:37;;;;;;;2.42;2.03;;;;;;;;;;5039590;28;20856;-77
2021/05/29 06:10:05;;;;;;;1.57;1.47;;;;;;;;;;5039642;28;20217;-78
2021/05/29 06:12:33;;;;;;;2.55;1.63;;;;;;;;;;5024267;28;21001;-78
2021/05/29 06:18:02;;;;;;;1.83;1.73;;;;;;;;;;5041665;28;20264;-77
2021/05/29 06:20:28;;;;;;;3.20;2.15;;;;;;;;;;5029856;28;20294;-78
2021/05/29 06:22:54;;;;;;;1.23;1.13;;;;;;;;;;5031451;28;20193;-77
2021/05/29 06:25:27;;;;;;;1.13;1.02;;;;;;;;;;5066247;28;20592;-76
2021/05/29 06:27:52;;;;;;;1.40;1.30;;;;;;;;;;5060833;28;20590;-76
2021/05/29 06:30:19;;;;;;;1.63;0.90;;;;;;;;;;5060189;28;20444;-75
2021/05/29 06:32:45;;;;;;;1.67;1.35;;;;;;;;;;5062094;28;20435;-76
2021/05/29 06:35:11;;;;;;;1.23;1.13;;;;;;;;;;5053371;28;20209;-76
2021/05/29 06:37:37;;;;;;;2.00;1.70;;;;;;;;;;5066822;28;20479;-76
2021/05/29 06:40:05;;;;;;;1.30;1.20;;;;;;;;;;5061704;28;20177;-76
2021/05/29 06:42:31;;;;;;;1.75;1.65;;;;;;;;;;5068928;28;20633;-76
2021/05/29 06:44:57;;;;;;;1.73;1.63;;;;;;;;;;5067058;28;20205;-76
2021/05/29 06:47:23;;;;;;;1.10;1.00;;;;;;;;;;5065206;28;20917;-75
2021/05/29 06:49:50;;;;;;;1.13;1.02;;;;;;;;;;5067852;28;20574;-76
2021/05/29 06:52:18;;;;;;;2.42;2.22;;;;;;;;;;5052039;28;20171;-76
2021/05/29 06:59:55;;;;;;;1.67;1.38;;;;;;;;;;5056740;28;20808;-76
2021/05/29 07:02:21;;;;;;;1.60;1.00;;;;;;;;;;5066695;28;20185;-76
2021/05/29 07:04:47;;;;;;;1.40;1.03;;;;;;;;;;5057222;28;20896;-76
2021/05/29 07:07:13;;;;;;;1.13;0.90;;;;;;;;;;5067577;28;20448;-76
2021/05/29 07:09:39;;;;;;;3.97;1.97;;;;;;;;;;5065567;28;20185;-76
2021/05/29 07:12:05;;;;;;;1.95;1.02;;;;;;;;;;5062750;28;20768;-75
2021/05/29 07:14:31;;;;;;;0.90;0.70;;;;;;;;;;5063875;28;20194;-76
2021/05/29 07:16:57;;;;;;;1.40;1.30;;;;;;;;;;5068084;28;20690;-75
2021/05/29 07:19:24;;;;;;;1.23;0.80;;;;;;;;;;5064395;28;20943;-74
2021/05/29 07:21:50;;;;;;;1.70;1.60;;;;;;;;;;5068172;28;20473;-76
2021/05/29 07:24:18;;;;;;;1.20;1.02;;;;;;;;;;5056775;28;20217;-76
2021/05/29 07:26:44;;;;;;;1.00;0.90;;;;;;;;;;5061249;28;20198;-76
2021/05/29 07:29:10;;;;;;;1.25;1.15;;;;;;;;;;5052490;28;20183;-77
2021/05/29 07:31:37;;;;;;;1.87;0.77;;;;;;;;;;5058671;28;20262;-76
2021/05/29 07:34:03;;;;;;;1.50;1.40;;;;;;;;;;5071486;28;20404;-76
2021/05/29 07:36:29;;;;;;;1.67;1.37;;;;;;;;;;5050966;28;20493;-75
2021/05/29 07:38:55;;;;;;;1.40;0.90;;;;;;;;;;5037641;28;20951;-76
2021/05/29 07:41:21;;;;;;;1.30;1.03;;;;;;;;;;5041760;28;20521;-75
2021/05/29 07:43:48;;;;;;;1.02;0.80;;;;;;;;;;5045560;28;20425;-74
2021/05/29 07:46:16;;;;;;;1.53;0.97;;;;;;;;;;5038775;28;20771;-73
2021/05/29 07:48:42;;;;;;;1.40;1.20;;;;;;;;;;5045228;28;20424;-74
2021/05/29 07:51:09;;;;;;;1.10;1.00;;;;;;;;;;5044365;28;20402;-76
2021/05/29 07:53:39;;;;;;;1.13;1.03;;;;;;;;;;5051203;28;20441;-76
2021/05/29 07:56:06;;;;;;;1.00;0.90;;;;;;;;;;5054023;28;20424;-76
2021/05/29 07:58:32;;;;;;;0.90;0.70;;;;;;;;;;5052235;28;20430;-76
2021/05/29 08:00:58;;;;;;;0.90;0.80;;;;;;;;;;5044043;28;20490;-75
2021/05/29 08:03:26;;;;;;;0.90;0.70;;;;;;;;;;5037702;28;20527;-75
2021/05/29 08:05:53;;;;;;;0.90;0.70;;;;;;;;;;5037056;28;20965;-75
2021/05/29 08:08:20;;;;;;;1.00;0.90;;;;;;;;;;5041739;28;20393;-74
2021/05/29 08:10:48;;;;;;;1.37;1.27;;;;;;;;;;5045057;28;20964;-75
2021/05/29 08:13:14;;;;;;;2.00;1.13;;;;;;;;;;5053541;28;20378;-75
2021/05/29 08:15:41;;;;;;;1.00;0.90;;;;;;;;;;5044222;28;20513;-75
2021/05/29 08:18:08;;;;;;;1.83;1.27;;;;;;;;;;5059435;28;20396;-76
2021/05/29 08:20:34;;;;;;;0.90;0.70;;;;;;;;;;5073500;28;20776;-76
2021/05/29 08:23:00;;;;;;;0.80;0.60;;;;;;;;;;5073596;28;20393;-76
2021/05/29 08:25:26;;;;;;;0.90;0.73;;;;;;;;;;5073380;28;20461;-75
2021/05/29 08:27:52;;;;;;;0.90;0.60;;;;;;;;;;5042896;28;20420;-76
2021/05/29 08:30:18;;;;;;;0.80;0.70;;;;;;;;;;5040990;28;20436;-76
2021/05/29 08:32:44;;;;;;;0.80;0.70;;;;;;;;;;5033582;28;20824;-76
2021/05/29 08:35:10;;;;;;;1.00;0.90;;;;;;;;;;5044923;28;20440;-75
2021/05/29 08:37:36;;;;;;;0.80;0.60;;;;;;;;;;5064768;28;20438;-75
2021/05/29 08:40:02;;;;;;;0.90;0.90;;;;;;;;;;5065103;28;20415;-76
2021/05/29 08:42:29;;;;;;;1.30;0.70;;;;;;;;;;5063877;28;20407;-75
2021/05/29 08:44:58;;;;;;;0.80;0.80;;;;;;;;;;5033136;28;20480;-76
2021/05/29 08:47:25;;;;;;;0.70;0.70;;;;;;;;;;5051300;28;20444;-75
2021/05/29 08:49:51;;;;;;;0.80;0.70;;;;;;;;;;5052804;28;20407;-76
2021/05/29 08:52:17;;;;;;;0.80;0.60;;;;;;;;;;5051782;28;20532;-75
2021/05/29 08:54:43;;;;;;;1.00;0.70;;;;;;;;;;5050690;28;20916;-75
2021/05/29 08:57:09;;;;;;;1.07;0.97;;;;;;;;;;5051985;28;20454;-75
2021/05/29 08:59:35;;;;;;;0.60;0.60;;;;;;;;;;5049488;28;20503;-75
2021/05/29 09:02:02;;;;;;;0.70;0.70;;;;;;;;;;5055318;28;20431;-75
2021/05/29 09:04:28;;;;;;;0.60;0.60;;;;;;;;;;5052813;28;20937;-76
2021/05/29 09:06:55;;;;;;;0.60;0.60;;;;;;;;;;5052746;28;20527;-76
2021/05/29 09:09:21;;;;;;;0.70;0.60;;;;;;;;;;5048294;28;20493;-76
2021/05/29 09:11:56;;;;;;;0.77;0.77;;;;;;;;;;5057348;28;20408;-76
2021/05/29 09:14:23;;;;;;;0.80;0.80;;;;;;;;;;5031919;28;20455;-78
2021/05/29 09:17:01;;;;;;;0.80;0.80;;;;;;;;;;5056110;28;20559;-78
2021/05/29 09:19:27;;;;;;;0.90;0.70;;;;;;;;;;5034680;28;20438;-78
2021/05/29 09:21:53;;;;;;;1.13;0.90;;;;;;;;;;5033926;28;20488;-79
2021/05/29 09:24:19;;;;;;;0.80;0.80;;;;;;;;;;5037510;28;20498;-77
2021/05/29 09:26:56;;;;;;;0.60;0.60;;;;;;;;;;5046345;28;20497;-77
2021/05/29 09:29:42;;;;;;;0.80;0.80;;;;;;;;;;5057961;28;20791;-77
2021/05/29 09:32:10;;;;;;;1.13;0.90;;;;;;;;;;5047263;28;20427;-77
2021/05/29 09:34:47;;;;;;;0.90;0.90;;;;;;;;;;5036951;28;20440;-77
2021/05/29 09:37:16;;;;;;;1.00;0.90;;;;;;;;;;5036827;28;20444;-76
2021/05/29 09:39:45;;;;;;;0.60;0.60;;;;;;;;;;5047372;28;20798;-77
2021/05/29 09:42:12;;;;;;;1.50;1.23;;;;;;;;;;5040075;28;20433;-77
2021/05/29 09:44:38;;;;;;;0.70;0.67;;;;;;;;;;5037530;28;20546;-77
2021/05/29 09:47:28;;;;;;;1.03;0.93;;;;;;;;;;5067081;28;20436;-76
2021/05/29 09:49:59;;;;;;;0.60;0.60;;;;;;;;;;5080886;28;20439;-77
2021/05/29 09:52:38;;;;;;;0.60;0.60;;;;;;;;;;5057646;28;20425;-77
2021/05/29 09:55:06;;;;;;;0.70;0.60;;;;;;;;;;5020735;28;20417;-77
2021/05/29 09:57:32;;;;;;;0.70;0.70;;;;;;;;;;5035861;28;20444;-77
2021/05/29 10:00:01;;;;;;;0.70;0.70;;;;;;;;;;5035687;28;20414;-76
2021/05/29 10:02:27;;;;;;;0.60;0.50;;;;;;;;;;5033510;28;20424;-77
2021/05/29 10:04:55;;;;;;;0.67;0.60;;;;;;;;;;5052109;28;20464;-77
2021/05/29 10:07:21;;;;;;;0.63;0.63;;;;;;;;;;5042533;28;20449;-76
2021/05/29 10:09:48;;;;;;;1.10;1.10;;;;;;;;;;5034671;28;20401;-76
2021/05/29 10:12:14;;;;;;;0.70;0.70;;;;;;;;;;5035812;28;20931;-76
2021/05/29 10:14:40;;;;;;;0.90;0.80;;;;;;;;;;5038398;28;20444;-76
2021/05/29 10:17:08;;;;;;;0.73;0.73;;;;;;;;;;5057905;28;20461;-76
2021/05/29 10:19:35;;;;;;;0.70;0.60;;;;;;;;;;5045253;28;20483;-76
2021/05/29 10:22:14;;;;;;;0.60;0.60;;;;;;;;;;5054055;28;20413;-76
2021/05/29 10:24:41;;;;;;;0.60;0.60;;;;;;;;;;5034436;28;21029;-76
2021/05/29 10:27:11;;;;;;;0.60;0.50;;;;;;;;;;5033831;28;20937;-76
2021/05/29 10:29:38;;;;;;;0.80;0.80;;;;;;;;;;5036271;28;20432;-76
2021/05/29 10:32:10;;;;;;;0.60;0.60;;;;;;;;;;5036109;28;20928;-76
2021/05/29 10:34:51;;;;;;;0.60;0.60;;;;;;;;;;5052029;28;20558;-76
2021/05/29 10:37:26;;;;;;;1.20;1.10;;;;;;;;;;5070194;28;20442;-76
2021/05/29 10:39:52;;;;;;;0.60;0.60;;;;;;;;;;5049427;28;20428;-76
2021/05/29 10:42:31;;;;;;;0.80;0.67;;;;;;;;;;5033078;28;20511;-76
2021/05/29 10:45:24;;;;;;;0.70;0.70;;;;;;;;;;5040185;28;20499;-76
2021/05/29 10:48:25;;;;;;;0.80;0.80;;;;;;;;;;5054606;28;20574;-76
2021/05/29 10:50:56;;;;;;;0.90;0.70;;;;;;;;;;5018179;28;20430;-77
2021/05/29 10:53:41;;;;;;;0.60;0.60;;;;;;;;;;5035863;28;21081;-77
2021/05/29 10:56:16;;;;;;;0.80;0.80;;;;;;;;;;5045995;28;21088;-77
2021/05/29 10:58:55;;;;;;;0.70;0.70;;;;;;;;;;5048450;28;20429;-76
2021/05/29 11:01:22;;;;;;;0.70;0.70;;;;;;;;;;5055019;28;20436;-77
2021/05/29 11:04:10;;;;;;;2.77;0.87;;;;;;;;;;5059873;28;20480;-76
2021/05/29 11:06:36;;;;;;;0.80;0.80;;;;;;;;;;5038654;28;20443;-76
2021/05/29 11:09:02;;;;;;;0.90;0.90;;;;;;;;;;5036632;28;20892;-76
2021/05/29 11:11:47;;;;;;;0.70;0.70;;;;;;;;;;5039988;28;20412;-76
2021/05/29 11:14:22;;;;;;;0.60;0.50;;;;;;;;;;5044980;28;20437;-77
2021/05/29 11:16:57;;;;;;;1.33;0.80;;;;;;;;;;5054922;28;20940;-76
2021/05/29 11:19:28;;;;;;;0.83;0.83;;;;;;;;;;5060901;28;20418;-77
2021/05/29 11:22:35;;;;;;;0.70;0.70;;;;;;;;;;5060481;28;20429;-77
2021/05/29 11:25:02;;;;;;;0.60;0.60;;;;;;;;;;5047322;28;20561;-77
2021/05/29 11:27:29;;;;;;;0.70;0.70;;;;;;;;;;5061526;28;20457;-76
2021/05/29 11:30:02;;;;;;;0.73;0.73;;;;;;;;;;5051014;28;20440;-78
2021/05/29 11:32:44;;;;;;;0.70;0.70;;;;;;;;;;5042999;28;20422;-77
2021/05/29 11:35:23;;;;;;;0.80;0.60;;;;;;;;;;5042681;28;20909;-77
2021/05/29 11:38:19;;;;;;;0.80;0.80;;;;;;;;;;5039725;28;20427;-77
2021/05/29 11:40:49;;;;;;;1.57;1.37;;;;;;;;;;5042232;28;20466;-76
2021/05/29 11:43:16;;;;;;;0.80;0.80;;;;;;;;;;5045267;28;20453;-75
2021/05/29 11:45:43;;;;;;;1.00;1.00;;;;;;;;;;5053605;28;20436;-77
2021/05/29 11:48:09;;;;;;;0.90;0.90;;;;;;;;;;5068829;28;20416;-75
2021/05/29 11:50:40;;;;;;;0.93;0.93;;;;;;;;;;5064395;28;20425;-77
2021/05/29 11:53:10;;;;;;;0.90;0.90;;;;;;;;;;5062688;28;20427;-77
2021/05/29 11:55:49;;;;;;;0.83;0.83;;;;;;;;;;5043290;28;20416;-77
2021/05/29 11:58:16;;;;;;;1.20;0.97;;;;;;;;;;5047494;28;20537;-77
2021/05/29 12:00:55;;;;;;;1.47;1.37;;;;;;;;;;5062722;28;20416;-75
2021/05/29 12:03:42;;;;;;;1.50;1.40;;;;;;;;;;5065421;28;20412;-77
2021/05/29 12:06:09;;;;;;;1.23;1.13;;;;;;;;;;5065759;28;20433;-78
2021/05/29 12:08:51;;;;;;;0.90;0.80;;;;;;;;;;5045353;28;20408;-76
2021/05/29 12:11:18;;;;;;;1.30;1.20;;;;;;;;;;5048190;28;20860;-77
2021/05/29 12:13:54;;;;;;;0.80;0.80;;;;;;;;;;5043878;28;21059;-76
2021/05/29 12:16:24;;;;;;;1.20;1.17;;;;;;;;;;5061105;28;20552;-77
2021/05/29 12:18:50;;;;;;;0.90;0.90;;;;;;;;;;5050833;28;20428;-77
2021/05/29 12:21:39;;;;;;;0.90;0.90;;;;;;;;;;5064914;28;20448;-77
2021/05/29 12:25:02;;;;;;;1.30;1.20;;;;;;;;;;5070882;28;20559;-77
2021/05/29 12:28:11;;;;;;;1.37;1.27;;;;;;;;;;5063109;28;20439;-76
2021/05/29 12:31:23;;;;;;;1.70;1.60;;;;;;;;;;5054113;28;20474;-76
2021/05/29 12:40:13;;;;;;;1.43;1.33;;;;;;;;;;5053753;28;20436;-79
2021/05/29 12:42:42;;;;;;;1.57;1.47;;;;;;;;;;5034223;28;20420;-78
2021/05/29 12:45:19;;;;;;;1.47;1.37;;;;;;;;;;5037910;28;20858;-78
2021/05/29 12:48:11;;;;;;;1.67;1.57;;;;;;;;;;5066320;28;20432;-78
2021/05/29 12:50:39;;;;;;;1.40;1.30;;;;;;;;;;5074497;28;20427;-79
2021/05/29 12:53:13;;;;;;;1.70;1.60;;;;;;;;;;5038183;28;20459;-79
2021/05/29 12:55:39;;;;;;;1.60;1.50;;;;;;;;;;5035454;28;20479;-79
2021/05/29 12:58:12;;;;;;;1.50;1.40;;;;;;;;;;5041282;28;20421;-80
2021/05/29 13:11:45;;;;;;;1.40;1.30;;;;;;;;;;5035507;28;20394;-78
2021/05/29 13:14:15;;;;;;;1.20;1.13;;;;;;;;;;5034802;28;20416;-80
2021/05/29 13:17:00;;;;;;;1.30;1.20;;;;;;;;;;5059225;28;20452;-78
2021/05/29 13:19:26;;;;;;;1.60;1.50;;;;;;;;;;5035734;28;20911;-79
2021/05/29 13:21:54;;;;;;;1.67;1.57;;;;;;;;;;5053413;28;20407;-79
2021/05/29 13:24:39;;;;;;;1.60;1.40;;;;;;;;;;5054243;28;20474;-78
2021/05/29 13:27:05;;;;;;;2.07;1.97;;;;;;;;;;5055288;28;20416;-79
2021/05/29 13:29:31;;;;;;;1.20;1.20;;;;;;;;;;5038078;28;20425;-78
2021/05/29 13:31:57;;;;;;;1.10;1.00;;;;;;;;;;5035927;28;20843;-80
2021/05/29 13:34:26;;;;;;;1.13;1.13;;;;;;;;;;5034425;28;20839;-79
2021/05/29 13:36:52;;;;;;;1.03;0.93;;;;;;;;;;5032739;28;20456;-76
2021/05/29 13:39:18;;;;;;;1.23;1.13;;;;;;;;;;5032288;28;20919;-77
2021/05/29 13:41:44;;;;;;;1.47;1.37;;;;;;;;;;5037036;28;20424;-77
2021/05/29 13:44:10;;;;;;;1.03;1.03;;;;;;;;;;5047318;28;20598;-77
2021/05/29 13:46:36;;;;;;;1.33;1.23;;;;;;;;;;5054083;28;20939;-77
2021/05/29 13:49:02;;;;;;;1.07;1.00;;;;;;;;;;5069565;28;20502;-77
2021/05/29 13:51:31;;;;;;;0.90;0.90;;;;;;;;;;5072079;28;20411;-77
2021/05/29 13:53:58;;;;;;;1.43;1.30;;;;;;;;;;5051644;28;20427;-77
2021/05/29 13:56:26;;;;;;;1.50;1.40;;;;;;;;;;5032044;28;20440;-77
2021/05/29 13:58:52;;;;;;;1.53;1.43;;;;;;;;;;5043160;28;20443;-76
2021/05/29 14:01:19;;;;;;;1.53;1.43;;;;;;;;;;5049050;28;20908;-77
2021/05/29 14:03:45;;;;;;;0.90;0.90;;;;;;;;;;5051792;28;20505;-77
2021/05/29 14:06:10;;;;;;;1.40;1.30;;;;;;;;;;5053347;28;20428;-79
2021/05/29 14:08:36;;;;;;;1.60;1.50;;;;;;;;;;5055144;28;20407;-80
2021/05/29 14:11:04;;;;;;;1.10;1.10;;;;;;;;;;5039760;28;20429;-80
2021/05/29 14:13:30;;;;;;;0.87;0.87;;;;;;;;;;5055217;28;20507;-79
2021/05/29 14:15:56;;;;;;;1.17;1.10;;;;;;;;;;5053606;28;20480;-79
2021/05/29 14:18:22;;;;;;;1.50;1.40;;;;;;;;;;5062395;28;20447;-78
2021/05/29 14:20:48;;;;;;;1.33;1.27;;;;;;;;;;5053785;28;20408;-80
2021/05/29 14:23:14;;;;;;;2.00;1.80;;;;;;;;;;5054761;28;20523;-79
2021/05/29 14:25:41;;;;;;;1.20;1.10;;;;;;;;;;5054210;28;20800;-78
2021/05/29 14:28:07;;;;;;;1.07;1.07;;;;;;;;;;5047333;28;20433;-81
2021/05/29 14:30:33;;;;;;;1.17;1.07;;;;;;;;;;5035356;28;20447;-79
2021/05/29 14:32:59;;;;;;;1.03;0.97;;;;;;;;;;5034356;28;20798;-79
2021/05/29 14:35:25;;;;;;;0.90;0.90;;;;;;;;;;5034382;28;20432;-78
2021/05/29 14:37:51;;;;;;;0.97;0.97;;;;;;;;;;5036183;28;20934;-79
2021/05/29 14:40:17;;;;;;;2.43;1.23;;;;;;;;;;5044493;28;20433;-80
2021/05/29 14:42:43;;;;;;;1.73;1.07;;;;;;;;;;5042947;28;20428;-79
2021/05/29 14:45:09;;;;;;;1.37;1.27;;;;;;;;;;5045973;28;20468;-79
2021/05/29 14:47:35;;;;;;;1.23;1.13;;;;;;;;;;5068419;28;20451;-79
2021/05/29 14:50:01;;;;;;;1.60;1.50;;;;;;;;;;5063304;28;20420;-79
2021/05/29 14:52:27;;;;;;;1.20;1.10;;;;;;;;;;5039481;28;20415;-80
2021/05/29 14:54:54;;;;;;;1.43;1.33;;;;;;;;;;5050983;28;20424;-79
2021/05/29 14:57:20;;;;;;;0.77;0.77;;;;;;;;;;5058988;28;20439;-80
2021/05/29 14:59:46;;;;;;;1.60;1.50;;;;;;;;;;5047909;28;20440;-79
2021/05/29 15:02:13;;;;;;;1.13;1.03;;;;;;;;;;5038957;28;20405;-80
2021/05/29 15:04:50;;;;;;;1.00;1.00;;;;;;;;;;5043881;28;20576;-80
2021/05/29 15:07:16;;;;;;;1.13;1.13;;;;;;;;;;5050687;28;20440;-79
2021/05/29 15:09:42;;;;;;;1.53;1.43;;;;;;;;;;5037704;28;20425;-80
2021/05/29 15:12:08;;;;;;;1.30;1.00;;;;;;;;;;5037783;28;20413;-79
2021/05/29 15:14:34;;;;;;;0.80;0.80;;;;;;;;;;5039158;28;20542;-80
2021/05/29 15:17:00;;;;;;;1.20;1.10;;;;;;;;;;5064652;28;20776;-78
2021/05/29 15:19:26;;;;;;;1.30;1.27;;;;;;;;;;5077944;28;20403;-78